Time;durP1;ratioP1;P1;durP2;ratioP2;P2;SDS_P1;SDS_P2;PMS_P1;PMS_P2;Temp;Humidity;BMP_temperature;BMP_pressure;BME280_temperature;BME280_humidity;BME280_pressure;Samples;Min_cycle;Max_cycle;Signal;HPM_P1;HPM_P2
2021/12/23 00:00:10;;;;;;;55.65;34.95;;;;;;;-3.84;72.40;101946.25;5013530;28;20490;-70
2021/12/23 00:02:36;;;;;;;58.63;33.05;;;;;;;-3.85;71.42;101926.53;5014364;28;20497;-70
2021/12/23 00:05:02;;;;;;;47.20;29.85;;;;;;;-3.97;70.49;101921.28;5013242;28;20080;-70
2021/12/23 00:07:27;;;;;;;43.92;28.45;;;;;;;-4.04;70.22;101903.63;5013771;28;20539;-70
2021/12/23 00:12:22;;;;;;;46.45;32.67;;;;;;;-4.19;72.71;101928.88;5026257;28;20624;-69
2021/12/23 00:14:51;;;;;;;51.30;32.33;;;;;;;-4.22;72.58;101948.22;5027449;28;20048;-69
2021/12/23 00:25:07;;;;;;;49.80;30.05;;;;;;;-4.22;71.66;101915.78;5013219;28;20410;-69
2021/12/23 00:27:33;;;;;;;48.25;32.08;;;;;;;-4.42;72.87;101913.25;5012401;28;20042;-70
2021/12/23 00:30:00;;;;;;;41.83;30.13;;;;;;;-4.32;72.15;101913.25;5013986;28;20507;-69
2021/12/23 00:32:26;;;;;;;45.67;28.95;;;;;;;-4.24;71.17;101932.69;5012996;28;20128;-69
2021/12/23 00:34:51;;;;;;;41.30;25.98;;;;;;;-3.95;69.38;101924.88;5013351;28;20740;-70
2021/12/23 00:37:18;;;;;;;47.63;29.23;;;;;;;-4.28;69.81;101922.97;5012478;28;20029;-69
2021/12/23 00:39:46;;;;;;;51.30;27.73;;;;;;;-4.50;70.04;101927.94;5013768;28;20114;-72
2021/12/23 00:42:12;;;;;;;47.65;30.30;;;;;;;-4.67;70.23;101916.28;5013019;28;20192;-69
2021/12/23 00:44:46;;;;;;;43.20;29.80;;;;;;;-4.49;70.20;101950.25;5011050;28;20573;-69
2021/12/23 00:47:11;;;;;;;40.88;28.50;;;;;;;-4.33;68.80;101931.91;5014019;28;20058;-69
2021/12/23 00:49:37;;;;;;;41.75;26.65;;;;;;;-4.31;67.45;101915.00;5013461;28;20073;-69
2021/12/23 00:52:05;;;;;;;40.25;27.65;;;;;;;-3.91;66.85;101931.16;5014900;28;20037;-69
2021/12/23 00:54:30;;;;;;;32.58;23.40;;;;;;;-4.67;68.35;101926.50;5012540;28;20046;-69
2021/12/23 00:56:59;;;;;;;38.33;25.95;;;;;;;-4.74;69.16;101943.00;5012681;28;20043;-69
2021/12/23 00:59:24;;;;;;;37.50;26.98;;;;;;;-4.68;68.40;101917.94;5013296;28;20057;-70
2021/12/23 01:01:50;;;;;;;40.53;27.45;;;;;;;-4.69;68.74;101915.25;5011211;28;20061;-70
2021/12/23 01:04:16;;;;;;;38.60;24.98;;;;;;;-4.45;67.62;101924.09;5012650;28;20064;-72
2021/12/23 01:06:42;;;;;;;39.15;25.75;;;;;;;-4.59;68.46;101934.84;5014719;28;20042;-70
2021/12/23 01:09:08;;;;;;;36.25;25.25;;;;;;;-4.61;68.95;101937.28;5011377;28;20046;-71
2021/12/23 01:11:34;;;;;;;40.72;26.50;;;;;;;-4.73;68.80;101924.34;5011343;28;20038;-68
2021/12/23 01:14:25;;;;;;;33.25;23.40;;;;;;;-5.01;68.82;101910.84;5012182;28;21225;-69
2021/12/23 01:19:25;;;;;;;31.63;20.88;;;;;;;-4.78;64.72;101909.34;5012589;28;20722;-68
2021/12/23 01:21:51;;;;;;;31.08;19.45;;;;;;;-4.81;64.23;101912.53;5013072;28;20096;-69
2021/12/23 01:24:17;;;;;;;28.23;19.90;;;;;;;-4.68;64.83;101922.19;5011656;28;20056;-69
2021/12/23 01:26:42;;;;;;;30.63;21.00;;;;;;;-4.80;65.24;101906.66;5013207;28;20038;-71
2021/12/23 01:29:09;;;;;;;35.75;21.30;;;;;;;-4.89;64.84;101908.44;5009911;28;20564;-69
2021/12/23 01:31:37;;;;;;;30.58;21.10;;;;;;;-4.78;65.23;101906.78;5011329;28;20050;-70
2021/12/23 01:34:06;;;;;;;31.67;19.85;;;;;;;-4.93;65.76;101902.13;4998687;28;20095;-69
2021/12/23 01:36:32;;;;;;;37.03;22.52;;;;;;;-4.98;66.34;101908.53;4999434;28;20124;-71
2021/12/23 01:38:58;;;;;;;37.80;23.67;;;;;;;-4.89;67.26;101917.00;4997946;28;20100;-69
2021/12/23 01:41:25;;;;;;;28.13;22.17;;;;;;;-4.85;66.64;101904.44;4998254;28;20046;-70
2021/12/23 01:43:52;;;;;;;37.35;23.58;;;;;;;-5.15;67.03;101906.16;4999604;28;20104;-69
2021/12/23 01:46:18;;;;;;;33.95;23.15;;;;;;;-5.07;66.77;101919.63;4997824;28;20057;-69
2021/12/23 01:48:44;;;;;;;34.88;23.08;;;;;;;-5.14;66.85;101910.53;4998270;28;20034;-69
2021/12/23 01:51:09;;;;;;;36.80;23.50;;;;;;;-5.22;67.22;101930.34;4997987;28;20532;-69
2021/12/23 01:53:37;;;;;;;29.38;23.45;;;;;;;-5.17;67.13;101910.28;4998713;28;20764;-69
2021/12/23 01:56:03;;;;;;;38.40;22.27;;;;;;;-5.20;66.89;101915.97;4997813;28;20042;-69
2021/12/23 01:58:29;;;;;;;27.65;21.25;;;;;;;-5.14;66.74;101931.88;4997906;28;20060;-70
2021/12/23 02:00:54;;;;;;;36.17;23.90;;;;;;;-5.10;66.38;101907.47;4998124;28;20037;-69
2021/12/23 02:03:20;;;;;;;30.98;21.45;;;;;;;-5.02;66.06;101936.28;4998579;28;20157;-69
2021/12/23 02:05:46;;;;;;;43.15;21.80;;;;;;;-5.21;66.39;101905.63;4997598;28;20046;-69
2021/12/23 02:08:12;;;;;;;31.48;21.05;;;;;;;-5.02;66.78;101903.00;4997917;28;20056;-69
2021/12/23 02:10:40;;;;;;;37.72;21.48;;;;;;;-5.14;66.67;101915.63;4996792;28;20041;-69
2021/12/23 02:13:05;;;;;;;28.83;20.05;;;;;;;-4.99;66.49;101919.50;4998693;28;20037;-72
2021/12/23 02:15:31;;;;;;;32.35;21.58;;;;;;;-5.04;67.15;101927.56;4999481;28;20096;-69
2021/12/23 02:17:57;;;;;;;28.30;18.88;;;;;;;-5.16;67.19;101927.41;4998154;28;20488;-69
2021/12/23 02:20:27;;;;;;;33.00;22.10;;;;;;;-4.93;67.30;101932.84;4998249;28;20127;-69
2021/12/23 02:22:56;;;;;;;33.33;22.48;;;;;;;-5.08;67.50;101908.50;4997328;28;20053;-69
2021/12/23 02:25:24;;;;;;;38.97;21.88;;;;;;;-5.03;67.78;101917.47;4996830;28;20029;-69
2021/12/23 02:27:52;;;;;;;31.63;20.38;;;;;;;-4.88;67.33;101921.34;4993151;28;20045;-69
2021/12/23 02:30:24;;;;;;;32.88;19.88;;;;;;;-4.96;66.76;101921.47;4996903;28;20568;-69
2021/12/23 02:32:51;;;;;;;32.15;19.95;;;;;;;-4.85;66.43;101915.59;4996352;28;20058;-70
2021/12/23 02:35:19;;;;;;;36.55;21.83;;;;;;;-4.59;65.99;101928.09;4997680;28;20072;-69
2021/12/23 02:37:45;;;;;;;36.08;21.67;;;;;;;-4.58;66.22;101906.81;4997799;28;20046;-70
2021/12/23 02:40:21;;;;;;;37.55;23.20;;;;;;;-4.40;66.30;101912.59;4996390;28;20152;-70
2021/12/23 02:42:46;;;;;;;31.55;20.92;;;;;;;-4.08;65.45;101912.69;4996898;28;20711;-70
2021/12/23 02:45:12;;;;;;;31.92;22.73;;;;;;;-3.66;64.78;101923.81;4996057;28;20057;-70
2021/12/23 02:47:37;;;;;;;24.88;19.02;;;;;;;-3.74;64.82;101905.22;4997618;28;20094;-69
2021/12/23 02:52:25;;;;;;;27.27;18.92;;;;;;;-3.62;63.86;101942.13;5047725;28;20620;-69
2021/12/23 02:54:58;;;;;;;28.10;21.27;;;;;;;-3.41;64.44;101929.25;5027018;28;20033;-69
2021/12/23 02:57:24;;;;;;;27.63;19.35;;;;;;;-3.49;64.38;101933.78;5022688;28;20050;-69
2021/12/23 02:59:51;;;;;;;24.65;17.85;;;;;;;-3.96;64.79;101905.13;5018800;28;20038;-70
2021/12/23 03:02:17;;;;;;;31.10;19.13;;;;;;;-4.01;65.13;101906.41;5013800;28;20203;-70
2021/12/23 03:04:43;;;;;;;34.40;18.92;;;;;;;-4.28;66.72;101921.31;5013010;28;20069;-70
2021/12/23 03:07:08;;;;;;;30.60;19.80;;;;;;;-4.47;67.32;101917.97;5007842;28;20029;-70
2021/12/23 03:09:36;;;;;;;30.80;19.52;;;;;;;-4.39;67.03;101911.81;5013564;28;20033;-70
2021/12/23 03:14:25;;;;;;;29.45;20.23;;;;;;;-4.19;67.71;101923.75;5005090;27;20626;-71
2021/12/23 03:16:51;;;;;;;29.45;20.70;;;;;;;-4.07;67.35;101908.50;4999135;28;20056;-70
2021/12/23 03:19:17;;;;;;;32.78;20.75;;;;;;;-4.38;68.52;101907.59;5013799;28;20049;-70
2021/12/23 03:21:45;;;;;;;32.78;20.65;;;;;;;-4.20;68.06;101906.56;5015214;28;20396;-70
2021/12/23 03:24:12;;;;;;;29.25;20.05;;;;;;;-3.57;67.28;101918.53;5014656;28;20156;-72
2021/12/23 03:26:38;;;;;;;25.80;20.77;;;;;;;-3.97;67.42;101928.09;5013914;28;20058;-69
2021/12/23 03:29:07;;;;;;;29.08;20.20;;;;;;;-4.14;67.73;101898.50;5009972;28;20127;-70
2021/12/23 03:31:33;;;;;;;32.95;20.85;;;;;;;-3.82;67.25;101920.00;5012362;28;20057;-71
2021/12/23 03:33:59;;;;;;;31.08;19.27;;;;;;;-3.90;66.60;101910.78;5012059;28;20107;-73
2021/12/23 03:36:26;;;;;;;28.10;20.65;;;;;;;-3.58;66.95;101911.59;5013667;28;20050;-71
2021/12/23 03:38:52;;;;;;;28.92;19.58;;;;;;;-3.44;65.71;101914.50;5013768;28;20057;-70
2021/12/23 03:41:17;;;;;;;32.05;22.65;;;;;;;-3.83;65.70;101901.91;5014221;28;20062;-69
2021/12/23 03:43:46;;;;;;;31.10;22.02;;;;;;;-3.76;66.40;101906.78;5014353;28;20049;-70
2021/12/23 03:46:11;;;;;;;29.08;21.38;;;;;;;-3.79;66.35;101916.78;5009566;28;20042;-70
2021/12/23 03:50:25;;;;;;;30.75;22.00;;;;;;;-3.93;66.94;101922.47;5041217;28;20682;-70
2021/12/23 03:52:51;;;;;;;36.60;23.23;;;;;;;-3.47;66.61;101926.19;5031802;28;20037;-72
2021/12/23 03:55:18;;;;;;;35.33;22.20;;;;;;;-3.53;66.48;101918.91;5031711;28;20029;-70
2021/12/23 03:57:44;;;;;;;26.83;20.98;;;;;;;-3.70;66.76;101938.06;5029063;28;20029;-69
2021/12/23 04:00:13;;;;;;;32.22;21.83;;;;;;;-3.58;67.03;101924.41;5029006;28;20046;-69
2021/12/23 04:02:41;;;;;;;36.63;19.58;;;;;;;-3.53;67.33;101930.84;5010853;28;20049;-70
2021/12/23 04:05:07;;;;;;;35.45;23.15;;;;;;;-3.16;65.93;101946.59;5030874;28;20137;-71
2021/12/23 04:07:35;;;;;;;44.28;24.15;;;;;;;-3.20;66.25;101932.66;5029517;28;20049;-71
2021/12/23 04:10:01;;;;;;;37.47;21.65;;;;;;;-2.97;65.04;101911.38;5031805;28;20139;-68
2021/12/23 04:16:24;;;;;;;35.92;21.48;;;;;;;-2.58;65.30;101934.09;5050723;28;20611;-70
2021/12/23 04:18:51;;;;;;;31.33;23.52;;;;;;;-2.67;65.19;101948.81;5028221;28;20043;-70
2021/12/23 04:21:18;;;;;;;28.85;19.40;;;;;;;-2.69;64.28;101923.75;5032702;28;20045;-68
2021/12/23 04:23:44;;;;;;;33.63;21.77;;;;;;;-2.61;65.03;101948.41;5029353;28;20037;-73
2021/12/23 04:26:10;;;;;;;35.45;22.38;;;;;;;-2.43;64.23;101954.97;5027332;28;20610;-68
2021/12/23 04:28:45;;;;;;;24.08;19.73;;;;;;;-2.76;64.06;101927.56;5026272;28;20081;-71
2021/12/23 04:31:16;;;;;;;34.45;21.65;;;;;;;-2.58;64.00;101948.63;5030917;28;20037;-73
2021/12/23 04:33:42;;;;;;;40.33;21.55;;;;;;;-2.57;64.15;101927.31;5030452;28;20087;-71
2021/12/23 04:36:08;;;;;;;31.75;21.05;;;;;;;-2.34;64.11;101936.78;5024367;28;20069;-70
2021/12/23 04:38:36;;;;;;;33.72;21.17;;;;;;;-2.64;63.56;101932.75;5029616;28;20072;-69
2021/12/23 04:41:02;;;;;;;30.25;21.27;;;;;;;-2.50;64.40;101937.28;5032465;28;20048;-70
2021/12/23 04:43:27;;;;;;;31.50;20.48;;;;;;;-3.48;65.75;101955.19;5030886;28;20053;-72
2021/12/23 04:45:53;;;;;;;46.22;23.00;;;;;;;-3.30;65.01;101951.56;5031796;28;20389;-70
2021/12/23 04:50:32;;;;;;;38.63;21.00;;;;;;;-3.20;65.98;101924.94;5095775;27;20978;-71
2021/12/23 04:52:58;;;;;;;32.78;22.80;;;;;;;-3.04;65.01;101945.03;5088532;28;20043;-69
2021/12/23 04:55:24;;;;;;;30.45;19.75;;;;;;;-3.08;64.61;101958.41;5085638;28;20489;-69
2021/12/23 04:57:50;;;;;;;36.00;21.73;;;;;;;-3.21;65.79;101928.28;5081896;28;20062;-70
2021/12/23 05:00:19;;;;;;;43.78;22.35;;;;;;;-3.24;66.18;101933.16;5113488;27;20489;-70
2021/12/23 05:02:46;;;;;;;31.30;21.80;;;;;;;-3.01;65.53;101915.34;5097670;27;20470;-71
2021/12/23 05:05:12;;;;;;;32.60;22.80;;;;;;;-2.85;64.78;101944.81;5116508;27;20054;-71
2021/12/23 05:07:38;;;;;;;37.67;22.13;;;;;;;-2.93;65.17;101931.34;5116818;27;20051;-69
2021/12/23 05:10:09;;;;;;;34.17;23.20;;;;;;;-2.60;64.93;101955.31;5115951;27;20034;-69
2021/12/23 05:12:43;;;;;;;37.00;23.02;;;;;;;-2.56;64.89;101960.81;5117461;27;20047;-70
2021/12/23 05:15:15;;;;;;;36.33;20.27;;;;;;;-2.61;64.68;101948.41;5115596;27;20542;-68
2021/12/23 05:17:42;;;;;;;33.38;22.70;;;;;;;-2.67;64.50;101937.63;5117117;27;20039;-72
2021/12/23 05:20:13;;;;;;;37.25;22.48;;;;;;;-2.36;64.38;101941.81;5115099;27;20487;-72
2021/12/23 05:22:38;;;;;;;32.78;21.25;;;;;;;-2.38;63.79;101961.34;5115495;27;20052;-71
2021/12/23 05:25:11;;;;;;;35.35;20.88;;;;;;;-3.15;64.56;101935.59;5115902;27;20031;-70
2021/12/23 05:27:38;;;;;;;40.03;22.90;;;;;;;-3.06;65.08;101946.59;5111234;27;20059;-69
2021/12/23 05:32:25;;;;;;;28.70;20.90;;;;;;;-2.74;64.38;101958.47;5026643;27;20629;-71
2021/12/23 05:34:51;;;;;;;30.65;22.42;;;;;;;-3.06;64.86;101928.59;5005247;28;20052;-69
2021/12/23 05:37:16;;;;;;;32.22;20.50;;;;;;;-2.65;64.30;101942.09;5001914;28;20410;-68
2021/12/23 05:39:45;;;;;;;36.72;21.60;;;;;;;-2.48;64.27;101934.81;5006831;28;20053;-68
2021/12/23 05:44:30;;;;;;;32.35;20.45;;;;;;;-2.70;64.08;101946.00;5085524;27;20620;-71
2021/12/23 05:46:58;;;;;;;30.88;20.08;;;;;;;-2.62;64.04;101936.34;5074660;28;20040;-70
2021/12/23 05:49:24;;;;;;;35.65;21.65;;;;;;;-3.46;65.99;101958.78;5056568;28;20065;-69
2021/12/23 05:51:49;;;;;;;35.40;22.90;;;;;;;-3.21;65.13;101942.03;5057246;28;20036;-70
2021/12/23 05:54:17;;;;;;;34.38;22.95;;;;;;;-2.69;64.86;101929.81;5075363;28;20151;-72
2021/12/23 05:56:43;;;;;;;33.53;23.52;;;;;;;-2.97;64.58;101949.88;5074193;28;20052;-72
2021/12/23 05:59:08;;;;;;;32.05;20.55;;;;;;;-2.87;64.45;101943.78;5075537;28;20117;-70
2021/12/23 06:01:33;;;;;;;38.88;20.20;;;;;;;-2.55;65.05;101941.19;5075032;28;20044;-70
2021/12/23 06:04:01;;;;;;;32.47;23.55;;;;;;;-2.29;63.89;101963.75;5075480;28;20040;-70
2021/12/23 06:06:27;;;;;;;28.65;20.27;;;;;;;-2.64;64.77;101943.03;5073821;28;20048;-70
2021/12/23 06:08:52;;;;;;;28.90;21.63;;;;;;;-2.44;64.70;101949.69;5074548;28;23127;-69
2021/12/23 06:11:21;;;;;;;65.97;30.45;;;;;;;-2.64;64.06;101950.72;5074342;28;20502;-70
2021/12/23 06:13:46;;;;;;;31.67;20.23;;;;;;;-2.77;64.84;101957.47;5075199;28;20094;-70
2021/12/23 06:16:12;;;;;;;36.08;24.63;;;;;;;-3.02;64.95;101974.28;5074534;28;20028;-70
2021/12/23 06:18:37;;;;;;;44.17;24.52;;;;;;;-3.41;66.49;101988.28;5074357;28;20028;-72
2021/12/23 06:21:03;;;;;;;36.42;23.25;;;;;;;-2.72;65.27;101954.38;5073251;28;20076;-70
2021/12/23 06:23:30;;;;;;;34.75;22.42;;;;;;;-2.55;64.84;101972.91;5073913;28;20056;-71
2021/12/23 06:25:58;;;;;;;34.25;22.83;;;;;;;-2.77;64.72;101966.84;5073790;28;20484;-71
2021/12/23 06:28:24;;;;;;;34.13;23.50;;;;;;;-2.69;65.45;101982.84;5068737;28;20617;-70
2021/12/23 06:30:50;;;;;;;36.03;23.45;;;;;;;-2.48;64.70;101946.00;5072921;28;20378;-71
2021/12/23 06:33:15;;;;;;;31.17;20.88;;;;;;;-2.31;64.44;101959.25;5074289;28;20053;-69
2021/12/23 06:35:41;;;;;;;32.47;22.98;;;;;;;-2.41;65.30;101955.06;5073068;28;20105;-69
2021/12/23 06:38:10;;;;;;;38.03;24.42;;;;;;;-2.41;64.30;101979.13;5073854;28;20048;-68
2021/12/23 06:40:37;;;;;;;32.72;24.15;;;;;;;-3.61;67.72;101971.22;5072823;28;20500;-68
2021/12/23 06:43:02;;;;;;;48.67;22.80;;;;;;;-3.77;67.99;101953.72;5074196;28;20056;-68
2021/12/23 06:45:28;;;;;;;35.28;23.63;;;;;;;-2.87;67.24;101979.75;5074624;28;20400;-68
2021/12/23 06:47:53;;;;;;;37.00;24.55;;;;;;;-2.40;65.95;101960.31;5074533;28;20052;-68
2021/12/23 06:50:21;;;;;;;42.38;26.55;;;;;;;-2.73;64.99;101960.28;5074316;28;20052;-68
2021/12/23 06:52:47;;;;;;;39.55;24.45;;;;;;;-3.29;66.54;101958.47;5073020;28;20048;-68
2021/12/23 06:55:14;;;;;;;41.85;23.98;;;;;;;-2.75;66.13;101960.16;5063423;28;20093;-70
2021/12/23 06:57:40;;;;;;;39.15;26.33;;;;;;;-2.76;65.86;101942.97;5060209;28;20042;-69
2021/12/23 07:00:11;;;;;;;32.95;24.27;;;;;;;-2.30;65.24;101961.94;5060077;28;20147;-71
2021/12/23 07:02:39;;;;;;;36.20;24.85;;;;;;;-2.07;63.69;101960.22;5060329;28;20037;-68
2021/12/23 07:05:06;;;;;;;39.33;25.13;;;;;;;-2.81;64.14;101949.41;5060110;28;20496;-68
2021/12/23 07:07:40;;;;;;;34.13;23.88;;;;;;;-2.33;64.85;101944.59;5058765;28;20106;-68
2021/12/23 07:10:08;;;;;;;31.15;21.50;;;;;;;-1.98;63.64;101976.34;5060525;28;20067;-68
2021/12/23 07:12:33;;;;;;;41.35;24.58;;;;;;;-2.24;63.55;101951.22;5061178;28;20067;-68
2021/12/23 07:14:59;;;;;;;41.53;27.20;;;;;;;-3.07;64.82;101950.78;5060506;28;20127;-69
2021/12/23 07:17:24;;;;;;;42.05;26.25;;;;;;;-2.67;64.55;101956.53;5060591;28;20084;-68
2021/12/23 07:19:50;;;;;;;40.85;26.38;;;;;;;-2.13;64.03;101968.38;5058449;28;20488;-71
2021/12/23 07:22:16;;;;;;;43.95;25.77;;;;;;;-1.95;63.16;101951.75;5059492;28;20039;-69
2021/12/23 07:24:49;;;;;;;51.20;25.88;;;;;;;-1.83;63.13;101967.19;5058967;28;20079;-69
2021/12/23 07:27:18;;;;;;;41.03;25.85;;;;;;;-1.35;63.06;101987.06;5055643;28;20161;-68
2021/12/23 07:29:43;;;;;;;45.28;26.58;;;;;;;-1.60;63.03;101983.47;5060117;28;20055;-68
2021/12/23 07:32:09;;;;;;;47.58;25.52;;;;;;;-1.62;63.18;101985.91;5060145;28;20060;-68
2021/12/23 07:34:39;;;;;;;38.50;25.98;;;;;;;-1.64;62.53;101964.34;5059396;28;20133;-69
2021/12/23 07:37:04;;;;;;;38.92;27.08;;;;;;;-1.40;62.37;101977.22;5060080;28;20027;-69
2021/12/23 07:39:32;;;;;;;39.70;25.50;;;;;;;-2.39;62.93;101975.00;5056193;28;20040;-68
2021/12/23 07:41:58;;;;;;;32.83;24.33;;;;;;;-1.83;63.28;101968.88;5059785;28;20488;-69
2021/12/23 07:44:23;;;;;;;30.65;23.15;;;;;;;-1.87;63.16;101959.13;5059798;28;20094;-69
2021/12/23 07:46:50;;;;;;;34.15;23.67;;;;;;;-1.89;63.57;101953.91;5059824;28;20064;-71
2021/12/23 07:49:18;;;;;;;32.83;24.50;;;;;;;-1.61;62.21;101976.53;5059688;28;23110;-69
2021/12/23 07:51:44;;;;;;;31.95;23.38;;;;;;;-1.50;62.52;101957.63;5059896;28;20056;-69
2021/12/23 07:54:10;;;;;;;45.97;25.98;;;;;;;-1.30;62.42;101977.09;5059587;28;20149;-71
2021/12/23 07:58:29;;;;;;;32.13;24.17;;;;;;;-1.93;63.05;101986.19;5052460;28;20615;-70
2021/12/23 08:00:54;;;;;;;39.97;24.67;;;;;;;-1.22;62.01;101990.53;5032782;28;20116;-72
2021/12/23 08:03:20;;;;;;;37.75;24.90;;;;;;;-2.27;63.28;101966.41;5045419;28;20119;-70
2021/12/23 08:05:46;;;;;;;43.78;24.75;;;;;;;-1.83;62.95;101956.03;5034502;28;20037;-70
2021/12/23 08:08:11;;;;;;;46.42;27.17;;;;;;;-1.42;62.44;101976.22;5032600;28;20061;-69
2021/12/23 08:10:36;;;;;;;47.60;24.45;;;;;;;-1.14;61.80;101951.69;5034514;28;20045;-69
2021/12/23 08:13:02;;;;;;;39.97;27.73;;;;;;;-1.51;61.69;101966.13;5033964;28;20033;-69
2021/12/23 08:15:32;;;;;;;40.70;22.92;;;;;;;-1.14;60.87;101972.28;5034483;28;20041;-69
2021/12/23 08:17:57;;;;;;;41.35;26.67;;;;;;;-1.13;60.76;101961.19;5034710;28;20053;-69
2021/12/23 08:20:23;;;;;;;42.83;26.05;;;;;;;-0.83;61.14;101989.94;5034376;28;20583;-69
2021/12/23 08:22:48;;;;;;;46.60;26.40;;;;;;;-2.24;61.74;101954.69;5034574;28;20106;-69
2021/12/23 08:25:14;;;;;;;37.08;24.27;;;;;;;-1.55;61.68;101992.41;5035232;28;20378;-70
2021/12/23 08:27:41;;;;;;;37.13;21.75;;;;;;;-1.14;60.55;101973.97;5031028;28;20486;-69
2021/12/23 08:30:10;;;;;;;36.80;23.15;;;;;;;-1.10;59.52;101991.41;5034911;28;20052;-70
2021/12/23 08:32:36;;;;;;;40.03;22.73;;;;;;;-1.77;60.23;101953.91;5029316;28;20041;-69
2021/12/23 08:35:02;;;;;;;35.47;23.80;;;;;;;-1.61;61.32;101948.25;5028970;28;20048;-69
2021/12/23 08:37:28;;;;;;;45.65;24.65;;;;;;;-1.36;60.67;101954.41;5027645;28;20155;-72
2021/12/23 08:39:54;;;;;;;35.63;20.45;;;;;;;-1.12;59.50;101954.38;5032464;28;20487;-70
2021/12/23 08:42:20;;;;;;;35.88;21.38;;;;;;;-0.56;57.48;101978.13;5029823;28;20091;-69
2021/12/23 08:44:45;;;;;;;26.33;18.88;;;;;;;-1.32;57.63;101955.50;5031663;28;20045;-69
2021/12/23 08:47:13;;;;;;;25.70;18.73;;;;;;;-1.15;57.64;101987.63;5012064;28;20088;-72
2021/12/23 08:49:40;;;;;;;30.58;17.58;;;;;;;-0.74;56.11;101951.06;5032901;28;20049;-71
2021/12/23 08:52:06;;;;;;;33.50;20.17;;;;;;;-1.42;55.62;101956.50;5030888;28;20120;-71
2021/12/23 08:54:31;;;;;;;21.40;15.43;;;;;;;-0.51;53.45;101953.56;5029483;28;20470;-69
2021/12/23 08:58:29;;;;;;;26.73;14.18;;;;;;;-0.58;52.48;101966.81;5047370;28;20610;-70
2021/12/23 09:00:54;;;;;;;29.85;15.60;;;;;;;-0.45;51.92;101938.50;5020058;28;20046;-70
2021/12/23 09:03:20;;;;;;;26.27;11.55;;;;;;;-0.13;50.93;101960.44;5019823;28;20061;-70
2021/12/23 09:05:45;;;;;;;21.20;15.70;;;;;;;-0.25;50.12;101955.34;5013820;28;20187;-73
2021/12/23 09:10:29;;;;;;;33.90;14.60;;;;;;;-0.54;50.00;101936.97;5074713;27;20971;-70
2021/12/23 09:12:55;;;;;;;26.90;14.02;;;;;;;-0.41;50.06;101936.16;5040058;28;20043;-71
2021/12/23 09:15:23;;;;;;;23.92;15.25;;;;;;;-0.38;49.28;101944.97;5025088;28;20130;-69
2021/12/23 09:17:49;;;;;;;19.13;13.55;;;;;;;-0.77;49.60;101914.75;5040248;28;20056;-69
2021/12/23 09:20:17;;;;;;;22.85;13.93;;;;;;;-1.57;51.76;101912.53;5020868;28;20041;-70
2021/12/23 09:22:43;;;;;;;28.25;14.85;;;;;;;-1.56;51.39;101926.31;5021357;28;20048;-68
2021/12/23 09:25:18;;;;;;;23.23;15.75;;;;;;;-1.63;52.58;101940.38;5041954;28;20036;-68
2021/12/23 09:28:13;;;;;;;25.05;16.73;;;;;;;-1.15;52.64;101910.34;5036986;28;20030;-68
2021/12/23 09:33:16;;;;;;;23.08;16.95;;;;;;;-1.15;51.47;101902.63;5038630;28;20454;-69
2021/12/23 09:35:42;;;;;;;24.45;16.55;;;;;;;-1.54;52.31;101914.44;5025495;28;20076;-72
2021/12/23 09:38:08;;;;;;;30.48;18.92;;;;;;;-1.36;53.84;101884.88;5041246;28;20539;-68
2021/12/23 09:40:35;;;;;;;24.83;17.15;;;;;;;-0.55;52.04;101884.53;5043732;28;20110;-70
2021/12/23 09:43:10;;;;;;;30.52;17.17;;;;;;;-0.52;52.00;101895.03;5043648;28;20033;-72
2021/12/23 09:45:37;;;;;;;26.40;17.80;;;;;;;-0.61;51.00;101878.03;5041317;28;20045;-71
2021/12/23 09:48:04;;;;;;;26.65;17.58;;;;;;;-0.26;51.25;101878.78;5042027;28;20049;-70
2021/12/23 09:50:39;;;;;;;26.95;16.58;;;;;;;-0.26;51.04;101878.78;5041562;28;20049;-68
2021/12/23 09:53:05;;;;;;;35.95;15.15;;;;;;;-0.81;50.26;101877.56;5043400;28;20112;-72
2021/12/23 09:55:34;;;;;;;22.02;12.93;;;;;;;-0.58;49.36;101894.63;5019763;28;20041;-70
2021/12/23 10:00:35;;;;;;;21.33;13.30;;;;;;;-0.81;48.83;101881.84;5022436;27;20631;-71
2021/12/23 10:03:00;;;;;;;22.67;13.48;;;;;;;-0.33;48.97;101863.69;5024522;28;20046;-71
2021/12/23 10:05:29;;;;;;;24.52;12.10;;;;;;;0.32;47.92;101878.25;5020208;28;20041;-72
2021/12/23 10:07:55;;;;;;;21.20;14.60;;;;;;;0.28;48.18;101851.34;5019137;28;20045;-70
2021/12/23 10:10:40;;;;;;;20.38;13.20;;;;;;;-0.03;48.03;101843.28;5018947;28;20116;-69
2021/12/23 10:40:29;;;;;;;20.70;14.57;;;;;;;0.76;47.68;101780.34;5050444;28;20599;-70
2021/12/23 10:42:54;;;;;;;22.55;13.52;;;;;;;0.90;46.78;101776.03;5000335;28;20044;-69
2021/12/23 10:45:20;;;;;;;24.35;13.60;;;;;;;0.77;46.68;101784.72;5011422;28;20038;-68
2021/12/23 10:48:42;;;;;;;21.25;13.32;;;;;;;0.09;46.86;101781.25;5066928;27;20580;-70
2021/12/23 10:51:16;;;;;;;17.63;11.65;;;;;;;-0.40;47.10;101776.38;5066212;28;20122;-73
2021/12/23 10:54:22;;;;;;;20.50;12.30;;;;;;;0.96;46.06;101766.06;5071226;28;20036;-68
2021/12/23 10:59:30;;;;;;;24.77;13.07;;;;;;;1.39;44.85;101776.38;5063363;28;20043;-68
2021/12/23 11:02:15;;;;;;;24.90;13.30;;;;;;;1.00;44.86;101749.94;5066902;28;20048;-71
2021/12/23 11:04:50;;;;;;;24.52;13.40;;;;;;;0.61;45.04;101764.81;5087094;28;20540;-71
2021/12/23 11:07:25;;;;;;;21.13;11.18;;;;;;;1.02;45.40;101735.41;5084678;28;20507;-68
2021/12/23 11:10:59;;;;;;;21.10;12.73;;;;;;;1.41;44.86;101756.69;5086000;28;20032;-71
2021/12/23 11:38:10;;;;;;;16.50;11.27;;;;;;;-0.06;49.91;101733.03;5081687;28;20040;-70
2021/12/23 11:45:45;;;;;;;20.55;13.77;;;;;;;-0.60;51.47;101713.19;5074450;28;20032;-70
2021/12/23 11:48:13;;;;;;;23.70;12.45;;;;;;;-0.48;51.82;101701.09;5075040;28;20047;-71
2021/12/23 11:50:53;;;;;;;24.63;13.90;;;;;;;-0.76;52.33;101706.13;5083471;28;20079;-68
2021/12/23 11:53:20;;;;;;;24.80;15.82;;;;;;;-0.30;52.52;101697.94;5088513;28;20044;-68
2021/12/23 11:55:45;;;;;;;28.17;16.50;;;;;;;-0.43;52.84;101712.59;5076933;28;20555;-69
2021/12/23 11:58:13;;;;;;;20.02;15.27;;;;;;;-0.22;52.33;101720.84;5083706;28;20994;-68
2021/12/23 12:00:42;;;;;;;22.30;15.43;;;;;;;-0.15;52.82;101721.25;5066351;28;20028;-71
2021/12/23 12:03:10;;;;;;;23.30;15.38;;;;;;;-0.32;52.96;101699.53;5074193;28;20048;-68
2021/12/23 12:05:39;;;;;;;30.00;13.70;;;;;;;-0.23;53.32;101701.00;5067927;28;20151;-71
2021/12/23 12:08:14;;;;;;;24.05;14.90;;;;;;;-0.44;53.58;101708.25;5072206;28;20046;-69
2021/12/23 12:10:42;;;;;;;24.27;16.20;;;;;;;-0.59;54.42;101680.56;5073047;28;20064;-70
2021/12/23 12:13:14;;;;;;;27.38;16.83;;;;;;;-0.28;54.02;101707.56;5068352;28;20120;-70
2021/12/23 12:15:39;;;;;;;18.83;14.07;;;;;;;-0.13;54.14;101715.38;5073331;28;20133;-69
2021/12/23 12:20:24;;;;;;;29.10;18.85;;;;;;;-0.15;53.59;101683.44;3715064;28;4643;-70
2021/12/23 12:23:13;;;;;;;27.38;18.75;;;;;;;-0.57;55.35;101672.13;5024525;28;19925;-71
2021/12/23 12:25:38;;;;;;;26.00;18.48;;;;;;;-0.27;55.37;101696.44;5024953;28;20049;-69
2021/12/23 12:28:03;;;;;;;30.77;20.42;;;;;;;-0.19;57.28;101668.56;5016675;28;20503;-68
2021/12/23 12:30:37;;;;;;;21.90;15.93;;;;;;;-0.13;57.81;101679.28;5011797;28;22407;-70
2021/12/23 12:33:11;;;;;;;23.52;18.05;;;;;;;-0.32;58.15;101651.41;5011361;28;20120;-68
2021/12/23 12:35:39;;;;;;;26.27;18.80;;;;;;;-0.41;58.49;101649.94;5012132;28;20141;-69
2021/12/23 12:38:21;;;;;;;33.83;19.60;;;;;;;-0.38;58.72;101653.59;5011427;28;20096;-68
2021/12/23 12:41:08;;;;;;;31.90;17.95;;;;;;;-0.62;59.55;101644.28;5008190;28;20068;-70
2021/12/23 12:43:48;;;;;;;23.83;17.02;;;;;;;-0.55;59.12;101636.16;5009400;28;20099;-71
2021/12/23 12:46:25;;;;;;;23.92;16.50;;;;;;;-0.39;59.02;101645.78;5008551;28;20089;-69
2021/12/23 12:49:01;;;;;;;28.95;18.67;;;;;;;0.06;58.07;101667.53;5007986;28;20065;-69
2021/12/23 12:51:37;;;;;;;33.47;19.40;;;;;;;-0.12;58.54;101644.03;5008346;28;20045;-68
2021/12/23 12:54:13;;;;;;;30.05;18.85;;;;;;;-0.43;58.93;101629.22;5009112;28;20038;-71
2021/12/23 12:56:51;;;;;;;31.17;18.13;;;;;;;0.01;58.73;101659.50;5007594;28;20129;-69